createdAt,value
2022-09-09T00:01:40.462Z,12.90
2022-09-09T00:04:22.732Z,12.80
2022-09-09T00:07:05.122Z,12.80
2022-09-09T00:09:48.108Z,12.80
2022-09-09T00:12:31.396Z,12.80
2022-09-09T00:15:08.447Z,12.80
2022-09-09T00:17:41.701Z,12.80
2022-09-09T00:20:16.463Z,12.80
2022-09-09T00:22:51.640Z,12.80
2022-09-09T00:25:30.396Z,12.80
2022-09-09T00:27:58.521Z,12.80
2022-09-09T00:30:28.667Z,12.80
2022-09-09T00:33:01.242Z,12.80
2022-09-09T00:35:33.391Z,12.80
2022-09-09T00:38:08.482Z,12.80
2022-09-09T00:40:43.033Z,12.80
2022-09-09T00:43:30.939Z,12.80
2022-09-09T00:46:21.070Z,12.80
2022-09-09T00:48:56.094Z,12.70
2022-09-09T00:51:32.736Z,12.70
2022-09-09T00:54:26.762Z,12.70
2022-09-09T00:57:08.495Z,12.70
2022-09-09T00:59:45.133Z,12.80
2022-09-09T01:02:23.299Z,12.80
2022-09-09T01:04:51.405Z,12.90
2022-09-09T01:07:21.066Z,12.90
2022-09-09T01:09:57.560Z,12.80
2022-09-09T01:12:35.415Z,12.80
2022-09-09T01:15:12.911Z,12.70
2022-09-09T01:17:57.545Z,12.70
2022-09-09T01:20:27.808Z,12.70
2022-09-09T01:23:16.861Z,12.60
2022-09-09T01:26:28.903Z,12.60
2022-09-09T01:29:01.310Z,12.60
2022-09-09T01:31:41.874Z,12.70
2022-09-09T01:34:14.715Z,12.60
2022-09-09T01:36:48.748Z,12.70
2022-09-09T01:39:16.997Z,12.80
2022-09-09T01:41:46.332Z,12.80
2022-09-09T01:44:19.336Z,12.90
2022-09-09T01:46:47.978Z,12.90
2022-09-09T01:49:19.355Z,12.90
2022-09-09T01:51:53.407Z,13.00
2022-09-09T01:54:29.794Z,13.10
2022-09-09T01:57:08.547Z,13.20
2022-09-09T02:00:02.447Z,13.30
2022-09-09T02:02:51.889Z,13.40
2022-09-09T02:05:40.575Z,13.40
2022-09-09T02:08:22.261Z,13.50
2022-09-09T02:11:01.903Z,13.50
2022-09-09T02:13:42.905Z,13.50
2022-09-09T02:16:20.353Z,13.70
2022-09-09T02:18:53.255Z,13.70
2022-09-09T02:21:29.362Z,13.80
2022-09-09T02:24:00.678Z,13.80
2022-09-09T02:26:31.276Z,13.80
2022-09-09T02:29:09.491Z,13.80
2022-09-09T02:31:40.462Z,13.70
2022-09-09T02:34:15.639Z,13.70
2022-09-09T02:36:46.594Z,13.60
2022-09-09T02:39:15.597Z,13.60
2022-09-09T02:41:44.461Z,13.70
2022-09-09T02:44:14.760Z,13.70
2022-09-09T02:47:05.103Z,13.80
2022-09-09T02:49:42.612Z,13.90
2022-09-09T02:52:13.202Z,14.00
2022-09-09T02:54:41.235Z,14.00
2022-09-09T02:57:16.975Z,14.10
2022-09-09T02:59:49.794Z,14.10
2022-09-09T03:02:19.761Z,14.10
2022-09-09T03:04:52.890Z,14.10
2022-09-09T03:07:24.461Z,14.00
2022-09-09T03:09:55.904Z,13.90
2022-09-09T03:12:26.989Z,13.80
2022-09-09T03:14:55.021Z,13.80
2022-09-09T03:17:24.365Z,13.70
2022-09-09T03:19:56.052Z,13.70
2022-09-09T03:22:24.296Z,13.80
2022-09-09T03:24:52.378Z,13.80
2022-09-09T03:27:21.220Z,13.90
2022-09-09T03:29:52.223Z,13.80
2022-09-09T03:32:27.431Z,13.80
2022-09-09T03:34:58.489Z,13.70
2022-09-09T03:37:27.115Z,13.60
2022-09-09T03:39:56.415Z,13.60
2022-09-09T03:42:25.098Z,13.50
2022-09-09T03:44:55.607Z,13.50
2022-09-09T03:47:27.555Z,13.50
2022-09-09T03:50:01.975Z,13.50
2022-09-09T03:52:30.411Z,13.60
2022-09-09T03:54:58.749Z,13.70
2022-09-09T03:57:26.712Z,13.80
2022-09-09T03:59:55.165Z,13.80
2022-09-09T04:02:23.457Z,13.80
2022-09-09T04:04:52.997Z,13.90
2022-09-09T04:07:21.209Z,13.90
2022-09-09T04:09:49.282Z,13.90
2022-09-09T04:12:17.625Z,13.90
2022-09-09T04:14:47.872Z,13.90
2022-09-09T04:17:16.207Z,14.00
2022-09-09T04:19:44.279Z,14.10
2022-09-09T04:22:13.679Z,14.20
2022-09-09T04:24:45.524Z,14.20
2022-09-09T04:27:16.849Z,14.20
2022-09-09T04:29:44.832Z,14.10
2022-09-09T04:32:14.011Z,14.00
2022-09-09T04:34:42.751Z,14.10
2022-09-09T04:37:12.676Z,14.00
2022-09-09T04:39:44.304Z,14.00
2022-09-09T04:42:14.488Z,14.00
2022-09-09T04:44:44.453Z,13.90
2022-09-09T04:47:12.884Z,13.90
2022-09-09T04:49:40.949Z,13.80
2022-09-09T04:52:09.067Z,13.70
2022-09-09T04:54:41.307Z,13.60
2022-09-09T04:57:17.959Z,13.60
2022-09-09T04:59:49.137Z,13.60
2022-09-09T05:02:17.296Z,13.60
2022-09-09T05:04:45.557Z,13.70
2022-09-09T05:07:16.771Z,13.80
2022-09-09T05:09:46.264Z,13.90
2022-09-09T05:12:14.186Z,14.00
2022-09-09T05:14:49.129Z,14.10
2022-09-09T05:17:17.297Z,14.10
2022-09-09T05:19:45.403Z,14.30
2022-09-09T05:22:13.801Z,14.40
2022-09-09T05:24:47.872Z,14.60
2022-09-09T05:27:19.116Z,14.70
2022-09-09T05:29:48.925Z,14.70
2022-09-09T05:32:18.042Z,14.90
2022-09-09T05:34:49.184Z,15.00
2022-09-09T05:37:18.373Z,15.00
2022-09-09T05:39:48.014Z,14.90
2022-09-09T05:42:16.081Z,15.00
2022-09-09T05:44:45.872Z,15.10
2022-09-09T05:47:14.028Z,15.20
2022-09-09T05:49:43.377Z,15.30
2022-09-09T05:52:12.105Z,15.30
2022-09-09T05:54:41.618Z,15.20
2022-09-09T05:57:11.507Z,15.10
2022-09-09T05:59:39.921Z,15.10
2022-09-09T06:02:08.405Z,15.10
2022-09-09T06:04:38.273Z,15.10
2022-09-09T06:07:11.503Z,15.20
2022-09-09T06:09:39.721Z,15.20
2022-09-09T06:12:10.936Z,15.30
2022-09-09T06:14:46.115Z,15.30
2022-09-09T06:17:15.804Z,15.30
2022-09-09T06:19:43.868Z,15.40
2022-09-09T06:22:13.553Z,15.50
2022-09-09T06:24:41.855Z,15.50
2022-09-09T06:27:11.701Z,15.60
2022-09-09T06:29:39.758Z,15.60
2022-09-09T06:32:09.594Z,15.80
2022-09-09T06:34:37.849Z,15.90
2022-09-09T06:37:07.558Z,16.10
2022-09-09T06:39:43.429Z,16.40
2022-09-09T06:42:12.829Z,16.70
2022-09-09T06:44:47.025Z,16.90
2022-09-09T06:47:23.441Z,17.10
2022-09-09T06:49:52.285Z,17.30
2022-09-09T06:52:21.574Z,17.40
2022-09-09T06:54:49.708Z,17.60
2022-09-09T06:57:36.341Z,17.70
2022-09-09T07:00:07.680Z,17.90
2022-09-09T07:02:39.980Z,18.10
2022-09-09T07:05:10.118Z,18.30
2022-09-09T07:07:39.007Z,18.60
2022-09-09T07:10:08.505Z,18.80
2022-09-09T07:12:39.720Z,19.00
2022-09-09T07:15:12.045Z,19.10
2022-09-09T07:17:43.436Z,19.20
2022-09-09T07:20:12.454Z,19.20
2022-09-09T07:22:40.715Z,19.20
2022-09-09T07:25:10.802Z,19.10
2022-09-09T07:27:41.711Z,18.90
2022-09-09T07:30:14.802Z,18.80
2022-09-09T07:32:46.225Z,18.70
2022-09-09T07:35:14.413Z,18.70
2022-09-09T07:37:44.944Z,18.70
2022-09-09T07:40:18.522Z,18.50
2022-09-09T07:42:48.747Z,18.50
2022-09-09T07:45:16.812Z,18.70
2022-09-09T07:47:45.032Z,18.70
2022-09-09T07:50:13.423Z,18.80
2022-09-09T07:52:41.612Z,18.90
2022-09-09T07:55:10.237Z,19.00
2022-09-09T07:57:38.922Z,19.40
2022-09-09T08:00:11.297Z,19.50
2022-09-09T08:02:45.043Z,19.70
2022-09-09T08:05:13.819Z,19.80
2022-09-09T08:07:42.691Z,19.80
2022-09-09T08:10:11.497Z,19.90
2022-09-09T08:13:01.530Z,19.90
2022-09-09T08:15:32.138Z,19.90
2022-09-09T08:18:00.878Z,19.90
2022-09-09T08:20:28.951Z,20.00
2022-09-09T08:22:58.042Z,20.10
2022-09-09T08:25:26.603Z,20.30
2022-09-09T08:27:56.797Z,20.40
2022-09-09T08:30:27.747Z,20.50
2022-09-09T08:32:57.717Z,20.60
2022-09-09T08:35:26.400Z,20.70
2022-09-09T08:37:56.455Z,20.80
2022-09-09T08:40:30.504Z,20.80
2022-09-09T08:43:03.881Z,20.80
2022-09-09T08:45:40.265Z,20.80
2022-09-09T08:48:24.255Z,20.80
2022-09-09T08:50:53.413Z,20.80
2022-09-09T08:53:31.334Z,20.90
2022-09-09T08:56:01.759Z,20.90
2022-09-09T08:59:01.444Z,20.80
2022-09-09T09:02:02.632Z,20.70
2022-09-09T09:05:07.432Z,21.00
2022-09-09T09:07:44.694Z,21.70
2022-09-09T09:10:40.586Z,22.10
2022-09-09T09:13:16.871Z,22.50
2022-09-09T09:15:51.116Z,22.80
2022-09-09T09:18:19.708Z,22.70
2022-09-09T09:20:56.109Z,22.50
2022-09-09T09:23:27.166Z,22.50
2022-09-09T09:26:02.666Z,22.80
2022-09-09T09:28:34.130Z,23.10
2022-09-09T09:31:15.560Z,23.30
2022-09-09T09:33:51.308Z,23.50
2022-09-09T09:36:25.647Z,23.60
2022-09-09T09:41:48.229Z,23.30
2022-09-09T09:44:26.626Z,23.20
2022-09-09T09:46:55.372Z,23.30
2022-09-09T09:49:24.097Z,23.30
2022-09-09T09:51:54.271Z,23.70
2022-09-09T09:54:29.914Z,23.90
2022-09-09T09:57:11.358Z,23.80
2022-09-09T09:59:41.364Z,23.60
2022-09-09T10:02:26.914Z,23.80
2022-09-09T10:05:15.633Z,23.60
2022-09-09T10:07:48.948Z,23.90
2022-09-09T10:10:27.989Z,24.50
2022-09-09T10:13:05.731Z,24.40
2022-09-09T10:15:43.386Z,24.50
2022-09-09T10:18:24.441Z,24.80
2022-09-09T10:20:58.902Z,24.80
2022-09-09T10:23:50.119Z,25.00
2022-09-09T10:26:34.968Z,24.40
2022-09-09T10:29:26.063Z,24.30
2022-09-09T10:32:08.679Z,24.20
2022-09-09T10:34:53.239Z,24.30
2022-09-09T10:37:33.979Z,24.20
2022-09-09T10:40:17.865Z,24.20
2022-09-09T10:42:46.133Z,24.60
2022-09-09T10:45:21.131Z,25.00
2022-09-09T10:48:05.337Z,25.30
2022-09-09T10:51:05.022Z,25.40
2022-09-09T10:53:39.723Z,25.40
2022-09-09T10:56:13.095Z,25.80
2022-09-09T10:58:50.102Z,25.70
2022-09-09T11:01:24.269Z,25.50
2022-09-09T11:03:58.483Z,25.40
2022-09-09T11:06:34.649Z,25.30
2022-09-09T11:09:04.659Z,25.20
2022-09-09T11:11:39.653Z,24.70
2022-09-09T11:14:13.913Z,24.40
2022-09-09T11:16:44.464Z,24.10
2022-09-09T11:19:19.642Z,24.00
2022-09-09T11:21:49.271Z,23.80
2022-09-09T11:24:24.118Z,23.70
2022-09-09T11:27:03.245Z,23.60
2022-09-09T11:30:04.559Z,23.50
2022-09-09T11:33:18.524Z,23.50
2022-09-09T11:35:56.215Z,23.60
2022-09-09T11:38:29.749Z,23.90
2022-09-09T11:41:01.329Z,24.10
2022-09-09T11:43:34.242Z,24.30
2022-09-09T11:46:04.526Z,24.50
2022-09-09T11:48:36.744Z,24.80
2022-09-09T11:51:14.588Z,25.00
2022-09-09T11:53:52.494Z,25.10
2022-09-09T11:56:31.789Z,25.00
2022-09-09T11:59:04.782Z,25.10
2022-09-09T12:01:42.416Z,25.00
2022-09-09T12:04:30.851Z,24.80
2022-09-09T12:07:03.450Z,24.50
2022-09-09T12:09:51.231Z,24.20
2022-09-09T12:12:44.020Z,24.10
2022-09-09T12:15:27.149Z,24.00
2022-09-09T12:18:02.634Z,23.70
2022-09-09T12:20:37.775Z,23.30
2022-09-09T12:23:24.344Z,23.00
2022-09-09T12:26:13.260Z,22.80
2022-09-09T12:28:53.408Z,23.10
2022-09-09T12:31:27.456Z,23.40
2022-09-09T12:33:55.606Z,23.80
2022-09-09T12:36:31.360Z,23.90
2022-09-09T12:39:18.756Z,24.00
2022-09-09T12:41:57.291Z,24.30
2022-09-09T12:44:29.775Z,24.50
2022-09-09T12:47:01.409Z,24.40
2022-09-09T12:49:35.111Z,24.30
2022-09-09T12:52:06.825Z,24.50
2022-09-09T12:54:37.979Z,25.00
2022-09-09T12:57:07.017Z,25.40
2022-09-09T12:59:40.153Z,25.00
2022-09-09T13:02:21.510Z,25.00
2022-09-09T13:04:53.907Z,24.90
2022-09-09T13:07:23.207Z,24.80
2022-09-09T13:09:51.602Z,23.80
2022-09-09T13:12:23.495Z,22.70
2022-09-09T13:14:55.601Z,21.70
2022-09-09T13:17:28.091Z,20.60
2022-09-09T13:19:59.138Z,20.20
2022-09-09T13:22:33.945Z,19.90
2022-09-09T13:25:07.007Z,19.60
2022-09-09T13:27:39.688Z,19.70
2022-09-09T13:30:24.751Z,19.70
2022-09-09T13:33:06.233Z,20.10
2022-09-09T13:35:35.013Z,20.10
2022-09-09T13:38:10.553Z,20.50
2022-09-09T13:40:40.150Z,21.10
2022-09-09T13:43:18.491Z,21.50
2022-09-09T13:45:56.193Z,21.50
2022-09-09T13:48:26.634Z,21.40
2022-09-09T13:50:59.341Z,21.00
2022-09-09T13:53:27.517Z,20.90
2022-09-09T13:55:55.625Z,21.30
2022-09-09T13:58:24.149Z,21.00
2022-09-09T14:00:52.224Z,21.20
2022-09-09T14:03:20.596Z,21.30
2022-09-09T14:05:50.397Z,21.00
2022-09-09T14:08:33.938Z,21.00
2022-09-09T14:11:01.937Z,21.50
2022-09-09T14:13:29.939Z,21.80
2022-09-09T14:15:57.928Z,21.70
2022-09-09T14:18:26.348Z,21.60
2022-09-09T14:20:55.689Z,21.80
2022-09-09T14:23:25.306Z,21.70
2022-09-09T14:25:53.754Z,21.70
2022-09-09T14:28:34.277Z,21.80
2022-09-09T14:31:11.675Z,21.90
2022-09-09T14:33:39.761Z,22.10
2022-09-09T14:36:12.238Z,22.30
2022-09-09T14:38:41.249Z,22.30
2022-09-09T14:41:11.203Z,22.30
2022-09-09T14:43:40.301Z,22.10
2022-09-09T14:46:09.595Z,21.90
2022-09-09T14:48:41.435Z,21.90
2022-09-09T14:51:13.666Z,21.80
2022-09-09T14:53:45.384Z,21.90
2022-09-09T14:56:16.072Z,22.00
2022-09-09T14:58:44.942Z,22.10
2022-09-09T15:01:15.259Z,22.20
2022-09-09T15:03:44.936Z,22.10
2022-09-09T15:06:16.155Z,21.90
2022-09-09T15:08:46.987Z,21.80
2022-09-09T15:11:17.206Z,21.70
2022-09-09T15:13:46.260Z,21.80
2022-09-09T15:16:16.474Z,21.80
2022-09-09T15:18:45.873Z,22.10
2022-09-09T15:21:17.297Z,22.30
2022-09-09T15:23:45.576Z,22.40
2022-09-09T15:26:15.000Z,22.20
2022-09-09T15:28:44.686Z,22.10
2022-09-09T15:31:16.216Z,22.00
2022-09-09T15:33:49.453Z,21.70
2022-09-09T15:36:21.343Z,21.60
2022-09-09T15:38:54.091Z,21.40
2022-09-09T15:41:26.574Z,21.30
2022-09-09T15:44:00.571Z,21.20
2022-09-09T15:46:33.458Z,21.30
2022-09-09T15:49:10.057Z,21.30
2022-09-09T15:51:43.073Z,21.20
2022-09-09T15:54:13.145Z,21.10
2022-09-09T15:56:41.942Z,21.00
2022-09-09T15:59:11.331Z,20.80
2022-09-09T16:01:41.882Z,20.80
2022-09-09T16:04:11.543Z,20.80
2022-09-09T16:06:41.632Z,20.70
2022-09-09T16:09:52.321Z,20.60
2022-09-09T16:12:20.589Z,20.50
2022-09-09T16:14:48.920Z,20.40
2022-09-09T16:17:19.022Z,20.40
2022-09-09T16:19:49.140Z,20.40
2022-09-09T16:22:25.476Z,20.40
2022-09-09T16:24:53.493Z,20.50
2022-09-09T16:27:21.449Z,20.70
2022-09-09T16:29:50.250Z,20.80
2022-09-09T16:32:19.877Z,20.90
2022-09-09T16:34:47.947Z,21.00
2022-09-09T16:37:16.406Z,21.10
2022-09-09T16:39:46.071Z,21.20
2022-09-09T16:42:14.309Z,21.30
2022-09-09T16:44:42.494Z,21.40
2022-09-09T16:47:10.486Z,21.40
2022-09-09T16:49:39.485Z,21.30
2022-09-09T16:52:07.425Z,21.20
2022-09-09T16:54:37.593Z,21.20
2022-09-09T16:57:07.648Z,21.20
2022-09-09T16:59:38.265Z,21.30
2022-09-09T17:02:06.800Z,21.20
2022-09-09T17:04:35.008Z,21.10
2022-09-09T17:07:03.328Z,21.00
2022-09-09T17:09:32.366Z,20.80
2022-09-09T17:12:01.029Z,20.80
2022-09-09T17:14:33.110Z,20.70
2022-09-09T17:17:19.199Z,20.70
2022-09-09T17:19:52.343Z,20.60
2022-09-09T17:22:39.589Z,20.50
2022-09-09T17:25:09.170Z,20.30
2022-09-09T17:27:37.314Z,20.20
2022-09-09T17:30:07.847Z,20.10
2022-09-09T17:32:36.539Z,20.00
2022-09-09T17:35:06.771Z,19.80
2022-09-09T17:37:34.805Z,19.70
2022-09-09T17:40:03.583Z,19.70
2022-09-09T17:42:32.046Z,19.70
2022-09-09T17:45:00.279Z,19.60
2022-09-09T17:47:31.936Z,19.60
2022-09-09T17:50:00.125Z,19.60
2022-09-09T17:52:28.136Z,19.60
2022-09-09T17:54:57.570Z,19.60
2022-09-09T17:57:26.752Z,19.50
2022-09-09T17:59:54.828Z,19.40
2022-09-09T18:02:22.976Z,19.20
2022-09-09T18:04:52.383Z,19.10
2022-09-09T18:07:20.596Z,18.90
2022-09-09T18:09:50.029Z,18.80
2022-09-09T18:12:18.143Z,18.60
2022-09-09T18:14:46.255Z,18.70
2022-09-09T18:17:14.315Z,18.60
2022-09-09T18:19:42.324Z,18.50
2022-09-09T18:22:11.794Z,18.50
2022-09-09T18:24:41.361Z,18.50
2022-09-09T18:27:11.685Z,18.50
2022-09-09T18:29:39.727Z,18.50
2022-09-09T18:32:08.235Z,18.50
2022-09-09T18:34:36.417Z,18.50
2022-09-09T18:37:04.718Z,18.60
2022-09-09T18:39:34.420Z,18.60
2022-09-09T18:42:03.057Z,17.00
2022-09-09T18:44:32.692Z,14.80
2022-09-09T18:47:01.116Z,14.20
2022-09-09T18:49:29.414Z,13.90
2022-09-09T18:51:57.844Z,13.90
2022-09-09T18:54:31.332Z,14.10
2022-09-09T18:57:01.634Z,14.20
2022-09-09T18:59:30.181Z,14.10
2022-09-09T19:01:59.402Z,13.90
2022-09-09T19:04:27.906Z,13.80
2022-09-09T19:06:58.613Z,13.70
2022-09-09T19:09:31.572Z,13.60
2022-09-09T19:12:02.052Z,13.80
2022-09-09T19:14:30.849Z,14.00
2022-09-09T19:16:59.337Z,14.30
2022-09-09T19:19:31.130Z,14.40
2022-09-09T19:21:59.773Z,14.40
2022-09-09T19:24:30.262Z,14.50
2022-09-09T19:27:03.553Z,14.60
2022-09-09T19:29:32.887Z,14.60
2022-09-09T19:32:42.416Z,14.60
2022-09-09T19:34:51.508Z,14.60
2022-09-09T19:37:22.398Z,14.70
2022-09-09T19:39:50.838Z,14.70
2022-09-09T19:42:22.599Z,14.60
2022-09-09T19:44:51.207Z,14.60
2022-09-09T19:47:20.201Z,14.60
2022-09-09T19:49:48.280Z,14.60
2022-09-09T19:52:17.278Z,14.60
2022-09-09T19:54:45.650Z,14.70
2022-09-09T19:57:14.337Z,14.70
2022-09-09T19:59:43.962Z,14.70
2022-09-09T20:02:15.301Z,14.80
2022-09-09T20:04:44.643Z,14.80
2022-09-09T20:07:13.160Z,14.80
2022-09-09T20:09:41.283Z,14.70
2022-09-09T20:12:11.673Z,14.80
2022-09-09T20:14:40.249Z,14.90
2022-09-09T20:17:10.363Z,14.90
2022-09-09T20:19:39.798Z,14.90
2022-09-09T20:22:11.161Z,14.90
2022-09-09T20:24:44.057Z,14.90
2022-09-09T20:27:12.757Z,14.80
2022-09-09T20:29:40.733Z,14.80
2022-09-09T20:32:10.187Z,14.80
2022-09-09T20:34:38.238Z,14.70
2022-09-09T20:37:06.358Z,14.60
2022-09-09T20:39:37.214Z,14.50
2022-09-09T20:42:05.780Z,14.50
2022-09-09T20:44:34.100Z,14.40
2022-09-09T20:47:06.433Z,14.40
2022-09-09T20:49:36.171Z,14.20
2022-09-09T20:52:05.119Z,14.20
2022-09-09T20:54:35.190Z,14.00
2022-09-09T20:57:03.266Z,14.00
2022-09-09T20:59:32.014Z,14.00
2022-09-09T21:02:00.878Z,14.00
2022-09-09T21:04:29.271Z,13.90
2022-09-09T21:06:58.712Z,13.80
2022-09-09T21:09:29.695Z,13.80
2022-09-09T21:11:57.757Z,13.70
2022-09-09T21:14:27.264Z,13.60
2022-09-09T21:16:55.428Z,13.60
2022-09-09T21:19:23.489Z,13.60
2022-09-09T21:21:51.563Z,13.50
2022-09-09T21:24:23.311Z,13.40
2022-09-09T21:26:51.597Z,13.40
2022-09-09T21:29:19.647Z,13.40
2022-09-09T21:31:47.916Z,13.30
2022-09-09T21:34:18.356Z,13.30
2022-09-09T21:36:46.455Z,13.20
2022-09-09T21:39:15.041Z,13.20
2022-09-09T21:41:44.457Z,13.20
2022-09-09T21:44:14.385Z,13.20
2022-09-09T21:46:43.914Z,13.20
2022-09-09T21:49:12.050Z,13.40
2022-09-09T21:51:42.504Z,13.40
2022-09-09T21:54:10.646Z,13.40
2022-09-09T21:56:39.022Z,13.40
2022-09-09T21:59:08.664Z,13.40
2022-09-09T22:01:36.774Z,13.40
2022-09-09T22:04:05.113Z,13.50
2022-09-09T22:06:33.169Z,13.60
2022-09-09T22:09:01.889Z,13.60
2022-09-09T22:11:31.220Z,13.70
2022-09-09T22:13:59.714Z,13.70
2022-09-09T22:16:29.245Z,13.70
2022-09-09T22:18:59.869Z,13.80
2022-09-09T22:21:30.925Z,13.70
2022-09-09T22:24:01.562Z,13.80
2022-09-09T22:26:32.787Z,13.70
2022-09-09T22:29:01.310Z,13.60
2022-09-09T22:31:34.034Z,13.50
2022-09-09T22:34:02.150Z,13.60
2022-09-09T22:36:33.158Z,13.50
2022-09-09T22:39:01.931Z,13.40
2022-09-09T22:41:30.534Z,13.30
2022-09-09T22:43:59.038Z,13.20
2022-09-09T22:46:27.150Z,13.20
2022-09-09T22:48:56.788Z,13.20
2022-09-09T22:51:24.803Z,13.10
2022-09-09T22:53:52.853Z,13.20
2022-09-09T22:56:21.718Z,13.30
2022-09-09T22:58:55.604Z,13.40
2022-09-09T23:01:25.054Z,13.40
2022-09-09T23:03:59.089Z,13.40
2022-09-09T23:06:29.280Z,13.40
2022-09-09T23:09:05.517Z,13.50
2022-09-09T23:11:50.931Z,13.50
2022-09-09T23:14:25.496Z,13.50
2022-09-09T23:17:05.730Z,13.60
2022-09-09T23:19:39.771Z,13.60
2022-09-09T23:22:18.807Z,13.70
2022-09-09T23:24:49.838Z,13.60
2022-09-09T23:27:23.538Z,13.60
2022-09-09T23:29:52.053Z,13.50
2022-09-09T23:32:20.117Z,13.40
2022-09-09T23:34:50.263Z,13.40
2022-09-09T23:37:19.060Z,13.40
2022-09-09T23:39:47.223Z,13.40
2022-09-09T23:42:15.281Z,13.50
2022-09-09T23:44:43.290Z,13.50
2022-09-09T23:47:11.329Z,13.60
2022-09-09T23:49:40.087Z,13.60
2022-09-09T23:52:09.389Z,13.70
2022-09-09T23:54:37.504Z,13.70
2022-09-09T23:57:05.627Z,13.60
2022-09-09T23:59:36.050Z,13.60
